createdAt,value
2019-05-21T00:01:05.243Z,71.90
2019-05-21T00:03:39.700Z,71.60
2019-05-21T00:06:12.828Z,71.40
2019-05-21T00:08:47.929Z,71.90
2019-05-21T00:11:19.701Z,71.60
2019-05-21T00:13:53.997Z,71.20
2019-05-21T00:16:26.177Z,72.20
2019-05-21T00:19:00.582Z,72.60
2019-05-21T00:21:34.893Z,71.90
2019-05-21T00:24:07.262Z,71.60
2019-05-21T00:26:39.953Z,71.70
2019-05-21T00:29:51.094Z,71.60
2019-05-21T00:32:59.521Z,71.00
2019-05-21T00:36:09.677Z,70.50
2019-05-21T00:39:17.898Z,69.80
2019-05-21T00:42:20.403Z,69.60
2019-05-21T00:44:53.507Z,70.00
2019-05-21T00:47:27.984Z,68.80
2019-05-21T00:50:03.308Z,68.30
2019-05-21T00:52:35.989Z,68.10
2019-05-21T00:55:08.911Z,67.80
2019-05-21T00:57:41.314Z,67.50
2019-05-21T01:00:16.400Z,67.20
2019-05-21T01:02:48.330Z,67.70
2019-05-21T01:05:21.366Z,66.60
2019-05-21T01:07:53.890Z,66.60
2019-05-21T01:10:26.356Z,66.50
2019-05-21T01:12:59.016Z,66.30
2019-05-21T01:15:33.960Z,65.70
2019-05-21T01:18:08.187Z,65.80
2019-05-21T01:20:39.837Z,65.20
2019-05-21T01:23:20.212Z,65.00
2019-05-21T01:25:52.756Z,65.70
2019-05-21T01:28:25.138Z,64.90
2019-05-21T01:30:58.705Z,64.90
2019-05-21T01:33:30.288Z,65.10
2019-05-21T01:36:01.771Z,64.60
2019-05-21T01:38:34.435Z,64.60
2019-05-21T01:41:07.100Z,64.10
2019-05-21T01:43:41.651Z,63.50
2019-05-21T01:46:16.072Z,63.50
2019-05-21T01:48:48.715Z,63.40
2019-05-21T01:51:21.382Z,62.80
2019-05-21T01:53:54.323Z,62.60
2019-05-21T01:56:27.108Z,62.10
2019-05-21T01:58:59.573Z,61.80
2019-05-21T02:01:32.417Z,61.60
2019-05-21T02:04:04.097Z,61.70
2019-05-21T02:06:36.155Z,61.10
2019-05-21T02:09:11.575Z,60.60
2019-05-21T02:11:46.255Z,59.90
2019-05-21T02:14:18.905Z,60.20
2019-05-21T02:16:53.020Z,60.10
2019-05-21T02:19:25.323Z,60.00
2019-05-21T02:21:57.945Z,59.10
2019-05-21T02:24:30.064Z,59.10
2019-05-21T02:27:01.130Z,58.50
2019-05-21T02:29:34.040Z,58.40
2019-05-21T02:32:05.867Z,58.50
2019-05-21T02:34:38.342Z,58.60
2019-05-21T02:37:09.547Z,58.10
2019-05-21T02:39:41.699Z,57.50
2019-05-21T02:42:14.157Z,57.40
2019-05-21T02:44:46.262Z,57.00
2019-05-21T02:47:17.337Z,56.80
2019-05-21T02:49:48.507Z,56.80
2019-05-21T02:52:20.708Z,55.90
2019-05-21T02:54:52.907Z,55.70
2019-05-21T02:57:27.754Z,55.70
2019-05-21T03:00:03.286Z,55.50
2019-05-21T03:02:37.240Z,54.90
2019-05-21T03:05:09.618Z,54.40
2019-05-21T03:07:42.211Z,54.40
2019-05-21T03:10:14.208Z,54.30
2019-05-21T03:12:46.505Z,54.40
2019-05-21T03:15:18.810Z,53.90
2019-05-21T03:17:49.990Z,53.20
2019-05-21T03:20:21.879Z,52.90
2019-05-21T03:22:55.631Z,52.90
2019-05-21T03:25:29.765Z,51.20
2019-05-21T03:28:01.708Z,51.40
2019-05-21T03:30:36.627Z,50.90
2019-05-21T03:33:09.163Z,51.60
2019-05-21T03:35:43.349Z,50.00
2019-05-21T03:38:17.718Z,50.80
2019-05-21T03:40:50.334Z,51.00
2019-05-21T03:43:21.505Z,51.10
2019-05-21T03:45:54.374Z,50.70
2019-05-21T03:48:30.608Z,49.30
2019-05-21T03:51:06.435Z,48.60
2019-05-21T03:53:43.330Z,48.80
2019-05-21T03:56:09.835Z,48.90
2019-05-21T03:58:42.447Z,49.10
2019-05-21T04:01:16.684Z,49.10
2019-05-21T04:03:48.807Z,49.70
2019-05-21T04:06:21.116Z,49.60
2019-05-21T04:08:53.318Z,50.10
2019-05-21T04:11:25.468Z,49.90
2019-05-21T04:13:58.013Z,49.70
2019-05-21T04:16:31.970Z,49.50
2019-05-21T04:19:07.302Z,48.10
2019-05-21T04:21:47.581Z,49.10
2019-05-21T04:24:19.839Z,49.00
2019-05-21T04:26:52.402Z,49.00
2019-05-21T04:29:26.092Z,49.10
2019-05-21T04:31:58.104Z,47.60
2019-05-21T04:34:30.143Z,47.40
2019-05-21T04:37:11.112Z,46.70
2019-05-21T04:39:37.431Z,46.90
2019-05-21T04:42:09.525Z,46.70
2019-05-21T04:44:44.555Z,46.10
2019-05-21T04:47:15.721Z,46.40
2019-05-21T04:49:47.784Z,45.80
2019-05-21T04:52:18.968Z,46.50
2019-05-21T04:54:52.977Z,46.30
2019-05-21T04:57:23.988Z,46.00
2019-05-21T04:59:55.165Z,46.30
2019-05-21T05:02:26.146Z,46.60
2019-05-21T05:05:00.209Z,46.00
2019-05-21T05:07:34.079Z,45.90
2019-05-21T05:10:07.010Z,45.70
2019-05-21T05:12:39.553Z,45.40
2019-05-21T05:15:11.904Z,44.40
2019-05-21T05:17:46.475Z,43.70
2019-05-21T05:20:21.724Z,43.20
2019-05-21T05:22:54.950Z,44.10
2019-05-21T05:25:27.119Z,44.70
2019-05-21T05:27:59.447Z,45.20
2019-05-21T05:30:31.756Z,44.50
2019-05-21T05:33:03.817Z,43.90
2019-05-21T05:35:36.014Z,44.60
2019-05-21T05:38:08.218Z,42.50
2019-05-21T05:40:39.273Z,42.40
2019-05-21T05:43:10.128Z,42.70
2019-05-21T05:45:44.273Z,44.00
2019-05-21T05:48:18.933Z,43.50
2019-05-21T05:50:51.398Z,42.70
2019-05-21T05:53:27.210Z,41.80
2019-05-21T05:55:59.542Z,42.30
2019-05-21T05:58:33.198Z,40.80
2019-05-21T06:01:05.266Z,40.40
2019-05-21T06:03:40.496Z,39.70
2019-05-21T06:06:14.116Z,39.70
2019-05-21T06:08:46.688Z,40.90
2019-05-21T06:11:17.824Z,39.40
2019-05-21T06:13:50.282Z,40.10
2019-05-21T06:16:24.377Z,41.20
2019-05-21T06:18:55.435Z,39.50
2019-05-21T06:21:27.910Z,40.30
2019-05-21T06:24:00.615Z,40.50
2019-05-21T06:26:32.942Z,40.30
2019-05-21T06:29:07.062Z,39.20
2019-05-21T06:31:43.263Z,40.00
2019-05-21T06:34:17.055Z,40.30
2019-05-21T06:36:51.485Z,40.50
2019-05-21T06:39:23.191Z,40.30
2019-05-21T06:41:55.728Z,39.10
2019-05-21T06:44:28.224Z,38.00
2019-05-21T06:47:00.397Z,38.10
2019-05-21T06:49:31.423Z,38.80
2019-05-21T06:52:03.820Z,39.10
2019-05-21T06:54:41.370Z,39.90
2019-05-21T06:57:12.510Z,40.20
2019-05-21T06:59:44.983Z,40.00
2019-05-21T07:02:18.359Z,39.70
2019-05-21T07:04:52.514Z,40.00
2019-05-21T07:07:23.600Z,39.90
2019-05-21T07:09:57.466Z,39.70
2019-05-21T07:12:31.789Z,40.00
2019-05-21T07:15:04.663Z,40.30
2019-05-21T07:17:36.895Z,39.80
2019-05-21T07:20:08.980Z,39.30
2019-05-21T07:22:40.991Z,38.90
2019-05-21T07:25:13.634Z,38.70
2019-05-21T07:27:48.653Z,38.60
2019-05-21T07:30:21.815Z,39.50
2019-05-21T07:32:53.964Z,38.60
2019-05-21T07:35:26.562Z,39.40
2019-05-21T07:37:58.845Z,40.10
2019-05-21T07:40:32.329Z,39.90
2019-05-21T07:43:04.820Z,40.30
2019-05-21T07:45:37.057Z,40.60
2019-05-21T07:48:09.346Z,40.00
2019-05-21T07:50:43.073Z,39.50
2019-05-21T07:53:15.203Z,39.90
2019-05-21T07:55:46.725Z,39.10
2019-05-21T07:58:20.179Z,39.20
2019-05-21T08:00:52.407Z,39.80
2019-05-21T08:03:25.260Z,40.40
2019-05-21T08:05:57.571Z,40.60
2019-05-21T08:08:29.270Z,40.80
2019-05-21T08:11:01.467Z,41.10
2019-05-21T08:13:33.383Z,41.10
2019-05-21T08:16:04.631Z,40.30
2019-05-21T08:18:38.932Z,40.50
2019-05-21T08:21:10.209Z,40.70
2019-05-21T08:23:43.736Z,40.60
2019-05-21T08:26:16.557Z,41.30
2019-05-21T08:28:48.689Z,41.00
2019-05-21T08:31:20.632Z,41.10
2019-05-21T08:33:54.606Z,41.70
2019-05-21T08:36:26.970Z,41.50
2019-05-21T08:39:00.958Z,41.40
2019-05-21T08:41:35.078Z,41.70
2019-05-21T08:44:09.218Z,41.20
2019-05-21T08:46:41.500Z,41.60
2019-05-21T08:49:13.960Z,41.60
2019-05-21T08:51:46.260Z,42.10
2019-05-21T08:54:18.556Z,41.50
2019-05-21T08:56:50.884Z,41.90
2019-05-21T08:59:22.015Z,42.20
2019-05-21T09:01:53.410Z,41.80
2019-05-21T09:04:45.005Z,42.00
2019-05-21T09:06:59.206Z,41.70
2019-05-21T09:09:48.400Z,42.20
2019-05-21T09:12:05.758Z,42.20
2019-05-21T09:14:36.901Z,43.10
2019-05-21T09:17:11.176Z,42.60
2019-05-21T09:19:43.635Z,42.30
2019-05-21T09:22:17.681Z,42.30
2019-05-21T09:24:48.945Z,42.50
2019-05-21T09:27:21.007Z,43.00
2019-05-21T09:29:53.140Z,42.80
2019-05-21T09:32:25.289Z,43.00
2019-05-21T09:34:56.447Z,42.80
2019-05-21T09:37:30.314Z,42.70
2019-05-21T09:40:02.619Z,42.20
2019-05-21T09:42:34.659Z,42.30
2019-05-21T09:45:10.070Z,43.50
2019-05-21T09:47:42.319Z,45.40
2019-05-21T09:50:13.600Z,47.30
2019-05-21T09:52:47.768Z,49.40
2019-05-21T09:55:22.171Z,51.30
2019-05-21T09:57:54.549Z,52.00
2019-05-21T10:00:29.629Z,52.10
2019-05-21T10:03:02.329Z,51.20
2019-05-21T10:05:36.106Z,51.50
2019-05-21T10:08:07.561Z,52.10
2019-05-21T10:10:39.993Z,52.50
2019-05-21T10:13:14.319Z,52.80
2019-05-21T10:15:46.516Z,52.60
2019-05-21T10:18:21.358Z,52.90
2019-05-21T10:20:55.881Z,52.70
2019-05-21T10:23:27.102Z,52.50
2019-05-21T10:26:01.142Z,52.50
2019-05-21T10:28:36.047Z,52.60
2019-05-21T10:31:08.137Z,52.40
2019-05-21T10:33:40.729Z,52.60
2019-05-21T10:36:14.462Z,52.20
2019-05-21T10:38:46.543Z,51.90
2019-05-21T10:41:18.433Z,52.40
2019-05-21T10:43:52.840Z,52.80
2019-05-21T10:46:27.143Z,53.60
2019-05-21T10:49:01.262Z,53.30
2019-05-21T10:51:32.500Z,55.00
2019-05-21T10:54:05.210Z,54.20
2019-05-21T10:56:47.735Z,55.00
2019-05-21T10:59:14.160Z,54.90
2019-05-21T11:01:48.366Z,55.60
2019-05-21T11:04:22.075Z,55.40
2019-05-21T11:06:54.498Z,55.10
2019-05-21T11:09:27.084Z,56.00
2019-05-21T11:12:00.762Z,55.70
2019-05-21T11:14:32.901Z,55.90
2019-05-21T11:17:10.503Z,56.70
2019-05-21T11:19:41.745Z,56.40
2019-05-21T11:22:13.628Z,57.00
2019-05-21T11:24:48.510Z,57.10
2019-05-21T11:27:22.536Z,57.90
2019-05-21T11:29:53.601Z,58.50
2019-05-21T11:32:25.774Z,58.70
2019-05-21T11:34:56.883Z,58.00
2019-05-21T11:37:29.482Z,58.50
2019-05-21T11:40:01.703Z,59.10
2019-05-21T11:42:32.658Z,58.90
2019-05-21T11:45:06.218Z,59.00
2019-05-21T11:47:38.717Z,59.60
2019-05-21T11:50:11.252Z,59.10
2019-05-21T11:52:43.176Z,57.80
2019-05-21T11:55:14.340Z,57.50
2019-05-21T11:57:48.137Z,56.90
2019-05-21T12:00:21.738Z,56.80
2019-05-21T12:02:55.640Z,56.40
2019-05-21T12:05:30.560Z,56.40
2019-05-21T12:08:02.991Z,56.30
2019-05-21T12:10:37.216Z,56.70
2019-05-21T12:13:11.810Z,56.70
2019-05-21T12:15:43.871Z,57.20
2019-05-21T12:18:17.973Z,57.40
2019-05-21T12:20:51.639Z,59.20
2019-05-21T12:23:24.134Z,59.10
2019-05-21T12:25:56.182Z,59.60
2019-05-21T12:28:29.864Z,60.70
2019-05-21T12:31:04.663Z,61.80
2019-05-21T12:33:38.765Z,61.40
2019-05-21T12:36:11.207Z,62.20
2019-05-21T12:38:43.154Z,62.80
2019-05-21T12:41:14.687Z,61.80
2019-05-21T12:43:48.602Z,61.90
2019-05-21T12:46:20.847Z,62.20
2019-05-21T12:48:55.008Z,62.50
2019-05-21T12:51:26.278Z,62.70
2019-05-21T12:54:00.142Z,63.10
2019-05-21T12:56:34.174Z,62.60
2019-05-21T12:59:06.394Z,63.20
2019-05-21T13:01:38.863Z,64.00
2019-05-21T13:04:11.138Z,64.30
2019-05-21T13:06:43.290Z,64.60
2019-05-21T13:09:31.356Z,65.00
2019-05-21T13:11:49.547Z,65.00
2019-05-21T13:14:23.933Z,65.60
2019-05-21T13:16:56.337Z,65.70
2019-05-21T13:19:30.392Z,66.00
2019-05-21T13:22:02.575Z,65.40
2019-05-21T13:24:36.508Z,64.80
2019-05-21T13:27:08.971Z,65.20
2019-05-21T13:29:40.094Z,66.20
2019-05-21T13:32:11.141Z,64.70
2019-05-21T13:34:44.911Z,66.20
2019-05-21T13:37:17.064Z,64.70
2019-05-21T13:39:51.129Z,64.00
2019-05-21T13:42:25.905Z,63.80
2019-05-21T13:44:58.151Z,64.00
2019-05-21T13:47:30.170Z,65.60
2019-05-21T13:50:02.234Z,64.60
2019-05-21T13:52:36.184Z,64.40
2019-05-21T13:55:09.980Z,63.80
2019-05-21T13:57:42.734Z,63.60
2019-05-21T14:00:16.191Z,63.40
2019-05-21T14:02:47.564Z,63.50
2019-05-21T14:05:19.250Z,63.40
2019-05-21T14:07:51.524Z,65.20
2019-05-21T14:10:23.430Z,65.20
2019-05-21T14:12:55.915Z,64.70
2019-05-21T14:15:28.047Z,64.50
2019-05-21T14:18:00.109Z,64.10
2019-05-21T14:20:34.671Z,65.40
2019-05-21T14:23:06.938Z,65.50
2019-05-21T14:25:39.535Z,66.80
2019-05-21T14:28:11.449Z,66.10
2019-05-21T14:30:43.652Z,66.20
2019-05-21T14:33:15.927Z,66.90
2019-05-21T14:35:47.913Z,66.80
2019-05-21T14:38:21.586Z,67.00
2019-05-21T14:40:53.854Z,67.30
2019-05-21T14:43:25.786Z,67.40
2019-05-21T14:46:04.108Z,67.20
2019-05-21T14:48:33.769Z,67.40
2019-05-21T14:51:08.346Z,67.00
2019-05-21T14:53:40.441Z,66.80
2019-05-21T14:56:11.594Z,66.90
2019-05-21T14:58:43.933Z,66.20
2019-05-21T15:01:16.226Z,66.00
2019-05-21T15:03:48.231Z,66.60
2019-05-21T15:06:20.357Z,67.20
2019-05-21T15:08:52.704Z,67.50
2019-05-21T15:11:23.816Z,67.60
2019-05-21T15:13:54.887Z,66.80
2019-05-21T15:16:27.118Z,66.40
2019-05-21T15:18:59.628Z,66.90
2019-05-21T15:21:33.240Z,66.30
2019-05-21T15:24:05.541Z,66.00
2019-05-21T15:26:37.526Z,65.70
2019-05-21T15:29:08.823Z,65.30
2019-05-21T15:31:42.153Z,65.30
2019-05-21T15:34:16.440Z,65.10
2019-05-21T15:36:48.421Z,65.40
2019-05-21T15:39:19.692Z,66.40
2019-05-21T15:41:51.689Z,65.50
2019-05-21T15:44:25.205Z,66.50
2019-05-21T15:46:59.282Z,66.10
2019-05-21T15:49:36.163Z,65.80
2019-05-21T15:52:04.069Z,65.50
2019-05-21T15:54:38.282Z,65.70
2019-05-21T15:57:12.070Z,65.30
2019-05-21T15:59:43.880Z,65.60
2019-05-21T16:02:16.030Z,65.40
2019-05-21T16:04:51.046Z,65.80
2019-05-21T16:07:24.951Z,65.60
2019-05-21T16:09:57.413Z,65.30
2019-05-21T16:12:31.672Z,65.30
2019-05-21T16:15:03.484Z,65.40
2019-05-21T16:17:35.926Z,66.90
2019-05-21T16:20:10.012Z,67.90
2019-05-21T16:22:42.522Z,67.60
2019-05-21T16:25:14.479Z,66.50
2019-05-21T16:27:46.589Z,66.70
2019-05-21T16:30:19.187Z,66.30
2019-05-21T16:32:50.259Z,65.60
2019-05-21T16:35:24.021Z,65.90
2019-05-21T16:37:55.285Z,65.80
2019-05-21T16:40:27.322Z,65.60
2019-05-21T16:42:59.755Z,65.40
2019-05-21T16:45:33.693Z,65.10
2019-05-21T16:48:04.710Z,65.00
2019-05-21T16:50:36.879Z,64.80
2019-05-21T16:53:07.986Z,64.60
2019-05-21T16:55:40.198Z,64.50
2019-05-21T16:58:12.191Z,64.50
2019-05-21T17:00:44.320Z,64.50
2019-05-21T17:03:16.735Z,64.50
2019-05-21T17:05:49.055Z,64.60
2019-05-21T17:08:21.088Z,64.60
2019-05-21T17:10:53.080Z,64.40
2019-05-21T17:13:25.304Z,64.30
2019-05-21T17:15:57.689Z,65.20
2019-05-21T17:18:29.592Z,65.00
2019-05-21T17:21:00.665Z,64.60
2019-05-21T17:23:38.004Z,64.80
2019-05-21T17:26:09.102Z,64.50
2019-05-21T17:28:41.366Z,65.20
2019-05-21T17:31:15.281Z,65.70
2019-05-21T17:33:47.489Z,65.30
2019-05-21T17:36:18.636Z,65.40
2019-05-21T17:38:50.632Z,65.40
2019-05-21T17:41:22.718Z,67.80
2019-05-21T17:43:55.784Z,67.20
2019-05-21T17:46:27.412Z,67.10
2019-05-21T17:48:59.421Z,67.30
2019-05-21T17:51:31.862Z,67.10
2019-05-21T17:54:09.329Z,67.80
2019-05-21T17:56:40.311Z,68.90
2019-05-21T17:59:11.478Z,68.90
2019-05-21T18:01:45.574Z,68.50
2019-05-21T18:04:18.813Z,70.40
2019-05-21T18:06:55.661Z,70.00
2019-05-21T18:09:28.982Z,69.50
2019-05-21T18:12:01.292Z,69.80
2019-05-21T18:14:33.567Z,69.20
2019-05-21T18:17:07.441Z,69.20
2019-05-21T18:19:38.804Z,69.10
2019-05-21T18:22:12.504Z,68.70
2019-05-21T18:24:48.401Z,69.00
2019-05-21T18:27:18.583Z,68.80
2019-05-21T18:29:52.062Z,68.80
2019-05-21T18:32:24.374Z,68.40
2019-05-21T18:34:56.778Z,69.00
2019-05-21T18:37:30.427Z,69.00
2019-05-21T18:40:02.657Z,68.40
2019-05-21T18:42:33.728Z,69.10
2019-05-21T18:45:05.816Z,68.80
2019-05-21T18:47:37.063Z,69.00
2019-05-21T18:50:11.378Z,69.50
2019-05-21T18:52:43.938Z,69.60
2019-05-21T18:55:17.931Z,69.30
2019-05-21T18:57:51.408Z,69.50
2019-05-21T19:00:22.568Z,69.30
2019-05-21T19:02:54.697Z,69.90
2019-05-21T19:05:26.954Z,70.20
2019-05-21T19:07:59.226Z,69.40
2019-05-21T19:10:31.168Z,70.40
2019-05-21T19:13:02.094Z,69.70
2019-05-21T19:15:38.284Z,70.70
2019-05-21T19:18:09.427Z,70.20
2019-05-21T19:20:40.395Z,70.30
2019-05-21T19:23:13.166Z,70.10
2019-05-21T19:25:53.075Z,70.20
2019-05-21T19:28:26.568Z,71.60
2019-05-21T19:31:14.250Z,71.50
2019-05-21T19:33:46.670Z,73.40
2019-05-21T19:36:22.514Z,73.10
2019-05-21T19:38:54.637Z,74.30
2019-05-21T19:41:43.741Z,74.10
2019-05-21T19:44:37.387Z,74.40
2019-05-21T19:47:10.012Z,73.60
2019-05-21T19:49:44.849Z,74.80
2019-05-21T19:52:21.978Z,73.90
2019-05-21T19:55:12.799Z,73.80
2019-05-21T19:57:44.952Z,75.10
2019-05-21T20:00:19.311Z,74.20
2019-05-21T20:02:53.055Z,74.30
2019-05-21T20:05:25.555Z,74.30
2019-05-21T20:07:57.791Z,73.80
2019-05-21T20:10:29.471Z,73.60
2019-05-21T20:13:01.563Z,73.60
2019-05-21T20:15:33.454Z,73.20
2019-05-21T20:18:08.520Z,73.10
2019-05-21T20:20:41.661Z,73.10
2019-05-21T20:23:32.462Z,73.50
2019-05-21T20:26:05.232Z,74.00
2019-05-21T20:28:37.427Z,74.00
2019-05-21T20:31:20.000Z,74.50
2019-05-21T20:33:51.575Z,73.80
2019-05-21T20:36:22.942Z,73.80
2019-05-21T20:38:56.868Z,75.70
2019-05-21T20:41:29.335Z,75.70
2019-05-21T20:44:00.912Z,75.70
2019-05-21T20:46:33.556Z,76.00
2019-05-21T20:49:05.334Z,76.50
2019-05-21T20:51:40.202Z,77.80
2019-05-21T20:54:13.765Z,77.50
2019-05-21T20:56:48.071Z,77.60
2019-05-21T20:59:20.857Z,77.60
2019-05-21T21:01:53.428Z,78.50
2019-05-21T21:04:27.320Z,78.80
2019-05-21T21:06:58.438Z,78.40
2019-05-21T21:09:30.736Z,78.30
2019-05-21T21:12:02.516Z,82.20
2019-05-21T21:14:33.692Z,81.90
2019-05-21T21:17:06.870Z,81.70
2019-05-21T21:19:38.015Z,82.80
2019-05-21T21:22:10.639Z,82.30
2019-05-21T21:24:42.748Z,82.60
2019-05-21T21:27:15.274Z,83.30
2019-05-21T21:29:46.464Z,84.20
2019-05-21T21:32:17.428Z,84.90
2019-05-21T21:34:49.528Z,84.40
2019-05-21T21:37:22.074Z,85.20
2019-05-21T21:39:53.284Z,84.40
2019-05-21T21:42:25.501Z,84.30
2019-05-21T21:44:57.610Z,84.50
2019-05-21T21:47:30.230Z,83.90
2019-05-21T21:50:01.274Z,84.20
2019-05-21T21:52:36.445Z,82.90
2019-05-21T21:55:08.001Z,83.50
2019-05-21T21:57:40.541Z,82.70
2019-05-21T22:00:15.786Z,81.90
2019-05-21T22:02:47.900Z,82.00
2019-05-21T22:05:20.625Z,82.00
2019-05-21T22:07:54.675Z,81.60
2019-05-21T22:10:26.798Z,81.60
2019-05-21T22:12:58.844Z,81.40
2019-05-21T22:15:32.400Z,81.10
2019-05-21T22:18:04.877Z,80.70
2019-05-21T22:20:36.160Z,80.70
2019-05-21T22:23:07.481Z,80.60
2019-05-21T22:25:38.692Z,80.80
2019-05-21T22:28:09.628Z,81.00
2019-05-21T22:30:41.754Z,80.60
2019-05-21T22:33:13.940Z,81.10
2019-05-21T22:35:45.178Z,81.60
2019-05-21T22:38:17.639Z,81.40
2019-05-21T22:40:49.895Z,81.40
2019-05-21T22:43:21.038Z,82.20
2019-05-21T22:45:53.100Z,81.60
2019-05-21T22:48:24.185Z,82.70
2019-05-21T22:50:56.428Z,82.00
2019-05-21T22:53:29.171Z,82.60
2019-05-21T22:56:01.576Z,82.00
2019-05-21T22:58:33.976Z,82.00
2019-05-21T23:01:06.815Z,82.30
2019-05-21T23:03:39.872Z,82.00
2019-05-21T23:06:13.574Z,82.60
2019-05-21T23:08:47.732Z,82.70
2019-05-21T23:11:22.822Z,82.30
2019-05-21T23:13:54.694Z,83.00
2019-05-21T23:16:26.800Z,82.40
2019-05-21T23:18:58.178Z,82.50
2019-05-21T23:21:32.010Z,82.20
2019-05-21T23:24:03.922Z,82.20
2019-05-21T23:26:36.534Z,81.90
2019-05-21T23:29:09.153Z,81.60
2019-05-21T23:31:40.380Z,81.90
2019-05-21T23:34:12.944Z,82.00
2019-05-21T23:36:46.377Z,81.70
2019-05-21T23:39:18.777Z,81.70
2019-05-21T23:41:52.025Z,81.30
2019-05-21T23:44:24.442Z,81.30
2019-05-21T23:46:55.807Z,81.20
2019-05-21T23:49:27.934Z,81.00
2019-05-21T23:51:59.966Z,80.90
2019-05-21T23:54:32.350Z,81.40
2019-05-21T23:57:07.153Z,80.80
2019-05-21T23:59:40.945Z,81.10
